createdAt,value
2022-08-25T00:03:15.998Z,28.44
2022-08-25T00:08:10.203Z,28.36
2022-08-25T00:13:04.632Z,28.36
2022-08-25T00:17:58.598Z,28.42
2022-08-25T00:22:51.657Z,28.41
2022-08-25T00:27:45.800Z,28.28
2022-08-25T00:32:40.917Z,28.33
2022-08-25T00:37:34.196Z,28.33
2022-08-25T00:42:27.463Z,28.45
2022-08-25T00:47:22.159Z,28.32
2022-08-25T00:52:27.476Z,28.19
2022-08-25T00:57:34.723Z,28.40
2022-08-25T01:02:32.742Z,28.13
2022-08-25T01:07:25.964Z,28.33
2022-08-25T01:12:19.959Z,28.05
2022-08-25T01:17:14.214Z,28.23
2022-08-25T01:22:07.371Z,28.22
2022-08-25T01:27:00.632Z,28.34
2022-08-25T01:31:59.755Z,28.34
2022-08-25T01:36:53.619Z,28.32
2022-08-25T01:42:11.963Z,28.25
2022-08-25T01:47:06.698Z,28.15
2022-08-25T01:52:10.971Z,28.27
2022-08-25T01:57:05.910Z,28.20
2022-08-25T02:02:00.358Z,28.30
2022-08-25T02:06:54.396Z,28.32
2022-08-25T02:11:48.346Z,28.21
2022-08-25T02:16:44.570Z,28.20
2022-08-25T02:21:39.067Z,28.26
2022-08-25T02:26:32.947Z,28.35
2022-08-25T02:31:26.717Z,28.34
2022-08-25T02:36:20.691Z,28.31
2022-08-25T02:41:20.326Z,28.18
2022-08-25T02:46:14.404Z,28.23
2022-08-25T02:51:09.780Z,28.15
2022-08-25T02:56:05.556Z,28.26
2022-08-25T03:00:59.921Z,28.22
2022-08-25T03:05:53.712Z,28.17
2022-08-25T03:10:48.015Z,28.20
2022-08-25T03:15:47.929Z,28.28
2022-08-25T03:20:43.863Z,28.14
2022-08-25T03:25:54.488Z,28.23
2022-08-25T03:30:55.726Z,28.20
2022-08-25T03:35:48.723Z,28.20
2022-08-25T03:40:42.397Z,28.20
2022-08-25T03:45:40.249Z,28.08
2022-08-25T03:50:35.123Z,28.19
2022-08-25T03:55:29.936Z,28.17
2022-08-25T04:00:26.228Z,28.02
2022-08-25T04:05:20.877Z,28.14
2022-08-25T04:10:14.717Z,28.01
2022-08-25T04:15:10.484Z,28.00
2022-08-25T04:20:05.668Z,28.13
2022-08-25T04:25:00.854Z,28.08
2022-08-25T04:29:54.163Z,28.03
2022-08-25T04:34:49.945Z,28.07
2022-08-25T04:39:43.799Z,28.00
2022-08-25T04:44:37.875Z,27.97
2022-08-25T04:49:31.093Z,27.96
2022-08-25T04:54:25.500Z,27.88
2022-08-25T04:59:19.668Z,27.70
2022-08-25T05:04:27.711Z,27.67
2022-08-25T05:09:23.162Z,27.66
2022-08-25T05:14:19.324Z,27.32
2022-08-25T05:19:13.947Z,27.35
2022-08-25T05:24:08.251Z,27.52
2022-08-25T05:29:05.114Z,27.67
2022-08-25T05:33:59.660Z,27.65
2022-08-25T05:38:53.956Z,27.79
2022-08-25T05:43:50.102Z,27.71
2022-08-25T05:48:44.123Z,27.74
2022-08-25T05:53:39.959Z,27.86
2022-08-25T05:58:33.364Z,27.76
2022-08-25T06:03:27.897Z,27.74
2022-08-25T06:08:22.137Z,27.64
2022-08-25T06:13:16.499Z,27.74
2022-08-25T06:18:15.250Z,27.79
2022-08-25T06:23:09.305Z,27.87
2022-08-25T06:28:03.100Z,27.82
2022-08-25T06:32:56.917Z,27.89
2022-08-25T06:37:50.945Z,27.88
2022-08-25T06:42:44.308Z,27.79
2022-08-25T06:47:37.428Z,27.49
2022-08-25T06:52:31.060Z,27.61
2022-08-25T06:57:25.717Z,27.63
2022-08-25T07:02:21.988Z,27.48
2022-08-25T07:07:16.761Z,27.50
2022-08-25T07:12:10.901Z,27.55
2022-08-25T07:17:10.541Z,27.62
2022-08-25T07:22:06.965Z,27.73
2022-08-25T07:27:03.827Z,27.59
2022-08-25T07:31:58.538Z,27.62
2022-08-25T07:36:52.411Z,27.58
2022-08-25T07:41:47.093Z,27.51
2022-08-25T07:46:45.132Z,27.77
2022-08-25T07:51:44.087Z,27.69
2022-08-25T07:56:56.824Z,27.67
2022-08-25T08:01:51.898Z,27.85
2022-08-25T08:06:45.941Z,27.80
2022-08-25T08:11:45.181Z,27.98
2022-08-25T08:16:47.578Z,28.03
2022-08-25T08:21:42.072Z,27.97
2022-08-25T08:26:57.786Z,27.97
2022-08-25T08:31:50.025Z,28.11
2022-08-25T08:36:45.370Z,27.94
2022-08-25T08:42:11.434Z,28.08
2022-08-25T08:47:15.410Z,28.09
2022-08-25T08:52:13.437Z,27.86
2022-08-25T08:57:11.502Z,27.99
2022-08-25T09:02:07.007Z,28.03
2022-08-25T09:07:15.335Z,28.19
2022-08-25T09:12:18.411Z,28.03
2022-08-25T09:18:00.096Z,28.09
2022-08-25T09:23:10.264Z,28.09
2022-08-25T09:28:04.738Z,28.08
2022-08-25T09:33:05.508Z,28.10
2022-08-25T09:38:01.337Z,28.14
2022-08-25T09:42:58.628Z,28.10
2022-08-25T09:47:53.277Z,27.88
2022-08-25T09:52:48.149Z,28.17
2022-08-25T09:57:52.962Z,28.20
2022-08-25T10:03:22.798Z,28.11
2022-08-25T10:08:32.283Z,28.30
2022-08-25T10:13:40.346Z,28.34
2022-08-25T10:18:34.970Z,28.33
2022-08-25T10:23:28.034Z,28.30
2022-08-25T10:29:01.113Z,28.29
2022-08-25T10:34:12.921Z,28.29
2022-08-25T10:39:34.055Z,28.32
2022-08-25T10:45:03.740Z,28.33
2022-08-25T10:50:50.287Z,28.30
2022-08-25T10:56:04.085Z,28.25
2022-08-25T11:01:12.264Z,28.22
2022-08-25T11:06:43.284Z,28.35
2022-08-25T11:11:57.589Z,28.23
2022-08-25T11:17:10.031Z,28.31
2022-08-25T11:22:11.886Z,28.36
2022-08-25T11:27:13.635Z,28.38
2022-08-25T11:32:09.208Z,28.18
2022-08-25T11:37:16.380Z,28.14
2022-08-25T11:42:29.242Z,28.36
2022-08-25T11:47:46.845Z,28.33
2022-08-25T11:53:03.027Z,28.33
2022-08-25T11:58:34.813Z,28.33
2022-08-25T12:03:37.527Z,28.35
2022-08-25T12:09:13.624Z,28.38
2022-08-25T12:14:35.636Z,28.33
2022-08-25T12:19:38.111Z,28.40
2022-08-25T12:24:50.904Z,28.40
2022-08-25T12:29:50.852Z,28.20
2022-08-25T12:35:07.473Z,28.41
2022-08-25T12:40:04.071Z,28.36
2022-08-25T12:45:14.936Z,28.38
2022-08-25T12:50:26.419Z,28.41
2022-08-25T12:55:24.181Z,28.31
2022-08-25T13:01:01.113Z,28.14
2022-08-25T13:06:23.256Z,28.39
2022-08-25T13:11:24.187Z,28.39
2022-08-25T13:16:30.216Z,28.35
2022-08-25T13:21:42.585Z,28.46
2022-08-25T13:26:48.111Z,28.46
2022-08-25T13:32:14.434Z,28.47
2022-08-25T13:37:33.369Z,28.48
2022-08-25T13:42:28.823Z,28.25
2022-08-25T13:47:43.548Z,28.38
2022-08-25T13:52:40.854Z,28.49
2022-08-25T13:57:42.145Z,28.49
2022-08-25T14:02:41.015Z,28.48
2022-08-25T14:07:39.329Z,28.33
2022-08-25T14:12:45.238Z,28.46
2022-08-25T14:17:41.740Z,28.49
2022-08-25T14:22:35.884Z,28.38
2022-08-25T14:27:30.419Z,28.41
2022-08-25T14:32:24.504Z,28.51
2022-08-25T14:37:25.601Z,28.29
2022-08-25T14:42:19.776Z,28.37
2022-08-25T14:47:13.833Z,28.51
2022-08-25T14:52:30.835Z,28.50
2022-08-25T14:57:25.648Z,28.41
2022-08-25T15:02:22.931Z,28.44
2022-08-25T15:07:42.308Z,28.54
2022-08-25T15:12:47.450Z,28.55
2022-08-25T15:17:44.499Z,28.54
2022-08-25T15:22:38.554Z,28.57
2022-08-25T15:27:32.632Z,28.42
2022-08-25T15:32:25.401Z,28.47
2022-08-25T15:37:25.589Z,28.57
2022-08-25T15:42:20.385Z,28.62
2022-08-25T15:47:15.226Z,28.46
2022-08-25T15:52:10.816Z,28.55
2022-08-25T15:57:09.519Z,28.49
2022-08-25T16:02:05.136Z,28.64
2022-08-25T16:07:08.539Z,28.63
2022-08-25T16:12:08.451Z,28.60
2022-08-25T16:17:02.100Z,28.67
2022-08-25T16:21:55.521Z,28.66
2022-08-25T16:26:51.795Z,28.69
2022-08-25T16:31:54.933Z,28.67
2022-08-25T16:36:51.869Z,28.69
2022-08-25T16:41:46.986Z,28.69
2022-08-25T16:46:40.871Z,28.57
2022-08-25T16:51:37.722Z,28.72
2022-08-25T16:56:33.552Z,28.63
2022-08-25T17:01:28.821Z,28.71
2022-08-25T17:06:24.405Z,28.67
2022-08-25T17:11:30.421Z,28.51
2022-08-25T17:16:31.260Z,28.66
2022-08-25T17:21:27.873Z,28.75
2022-08-25T17:26:27.497Z,28.65
2022-08-25T17:31:21.478Z,28.62
2022-08-25T17:36:17.332Z,28.73
2022-08-25T17:41:12.537Z,28.78
2022-08-25T17:46:08.491Z,28.74
2022-08-25T17:51:01.710Z,28.79
2022-08-25T17:56:04.373Z,28.75
2022-08-25T18:00:58.932Z,28.78
2022-08-25T18:05:52.904Z,28.58
2022-08-25T18:10:46.932Z,28.80
2022-08-25T18:15:42.326Z,28.82
2022-08-25T18:20:36.496Z,28.83
2022-08-25T18:25:31.541Z,28.61
2022-08-25T18:30:26.196Z,28.72
2022-08-25T18:35:21.445Z,28.85
2022-08-25T18:40:26.191Z,28.71
2022-08-25T18:45:19.860Z,28.87
2022-08-25T18:50:16.525Z,28.93
2022-08-25T18:55:13.301Z,29.00
2022-08-25T19:00:09.778Z,29.01
2022-08-25T19:05:07.370Z,29.03
2022-08-25T19:10:02.479Z,29.02
2022-08-25T19:14:56.789Z,29.01
2022-08-25T19:19:51.893Z,28.91
2022-08-25T19:24:46.397Z,28.91
2022-08-25T19:29:40.312Z,29.06
2022-08-25T19:34:39.475Z,29.02
2022-08-25T19:39:36.282Z,29.01
2022-08-25T19:44:33.119Z,29.13
2022-08-25T19:49:31.864Z,29.08
2022-08-25T19:54:36.567Z,28.98
2022-08-25T19:59:43.099Z,29.09
2022-08-25T20:04:37.243Z,29.23
2022-08-25T20:09:38.992Z,29.18
2022-08-25T20:14:39.967Z,29.33
2022-08-25T20:19:35.799Z,29.21
2022-08-25T20:24:47.883Z,29.21
2022-08-25T20:29:44.638Z,29.27
2022-08-25T20:34:39.576Z,29.13
2022-08-25T20:39:35.893Z,29.23
2022-08-25T20:44:41.924Z,29.11
2022-08-25T20:49:37.804Z,29.03
2022-08-25T20:54:32.724Z,29.09
2022-08-25T20:59:28.333Z,29.03
2022-08-25T21:04:27.002Z,28.91
2022-08-25T21:09:25.332Z,29.03
2022-08-25T21:14:18.940Z,29.16
2022-08-25T21:19:26.804Z,28.85
2022-08-25T21:24:25.932Z,29.02
2022-08-25T21:29:22.698Z,29.11
2022-08-25T21:34:20.894Z,29.11
2022-08-25T21:39:16.732Z,29.10
2022-08-25T21:44:10.962Z,28.84
2022-08-25T21:49:06.794Z,28.88
2022-08-25T21:54:12.022Z,28.91
2022-08-25T21:59:12.759Z,28.97
2022-08-25T22:04:11.531Z,28.85
2022-08-25T22:09:08.918Z,28.67
2022-08-25T22:14:01.448Z,28.67
2022-08-25T22:18:55.415Z,28.55
2022-08-25T22:23:50.808Z,28.63
2022-08-25T22:28:48.086Z,28.75
2022-08-25T22:33:45.659Z,28.64
2022-08-25T22:38:44.188Z,28.61
2022-08-25T22:43:39.310Z,28.41
2022-08-25T22:48:32.389Z,28.45
2022-08-25T22:53:28.981Z,28.38
2022-08-25T22:58:25.261Z,28.30
2022-08-25T23:03:18.502Z,28.31
2022-08-25T23:08:12.541Z,28.31
2022-08-25T23:13:09.584Z,28.09
2022-08-25T23:18:09.369Z,27.92
2022-08-25T23:23:03.813Z,28.15
2022-08-25T23:28:02.132Z,28.05
2022-08-25T23:32:56.783Z,28.07
2022-08-25T23:37:53.122Z,28.23
2022-08-25T23:42:48.231Z,28.35
2022-08-25T23:47:45.176Z,28.36
2022-08-25T23:52:40.245Z,28.37
2022-08-25T23:57:35.027Z,28.33
